createdAt,value
2022-09-06T00:01:15.154Z,9.50
2022-09-06T00:03:43.708Z,6.60
2022-09-06T00:06:15.133Z,6.80
2022-09-06T00:08:44.972Z,5.50
2022-09-06T00:11:14.218Z,7.70
2022-09-06T00:13:42.652Z,6.90
2022-09-06T00:16:13.067Z,6.00
2022-09-06T00:18:43.095Z,6.10
2022-09-06T00:21:20.849Z,6.30
2022-09-06T00:23:49.197Z,10.30
2022-09-06T00:26:18.073Z,8.60
2022-09-06T00:28:46.754Z,6.20
2022-09-06T00:31:24.605Z,7.50
2022-09-06T00:33:53.384Z,6.00
2022-09-06T00:36:22.851Z,5.50
2022-09-06T00:38:51.091Z,8.00
2022-09-06T00:41:19.614Z,5.90
2022-09-06T00:43:47.994Z,6.90
2022-09-06T00:46:19.357Z,5.90
2022-09-06T00:48:51.207Z,8.90
2022-09-06T00:51:21.477Z,6.50
2022-09-06T00:53:50.954Z,4.70
2022-09-06T00:56:19.461Z,6.10
2022-09-06T00:58:48.723Z,7.20
2022-09-06T01:01:16.985Z,7.60
2022-09-06T01:03:45.421Z,6.70
2022-09-06T01:06:24.857Z,6.10
2022-09-06T01:09:12.105Z,5.70
2022-09-06T01:11:52.407Z,8.00
2022-09-06T01:14:57.752Z,6.10
2022-09-06T01:17:47.638Z,6.70
2022-09-06T01:20:44.301Z,5.70
2022-09-06T01:23:31.546Z,7.70
2022-09-06T01:26:30.512Z,5.50
2022-09-06T01:28:59.293Z,4.50
2022-09-06T01:31:42.952Z,5.30
2022-09-06T01:34:32.101Z,6.70
2022-09-06T01:37:10.205Z,8.50
2022-09-06T01:39:40.692Z,8.60
2022-09-06T01:42:20.420Z,6.20
2022-09-06T01:45:11.703Z,6.60
2022-09-06T01:47:58.640Z,9.20
2022-09-06T01:50:48.435Z,5.60
2022-09-06T01:53:32.253Z,5.80
2022-09-06T01:56:12.634Z,5.80
2022-09-06T01:59:19.183Z,7.00
2022-09-06T02:02:12.933Z,7.30
2022-09-06T02:04:53.692Z,5.50
2022-09-06T02:07:31.538Z,6.10
2022-09-06T02:10:07.478Z,10.90
2022-09-06T02:12:39.556Z,10.00
2022-09-06T02:15:35.995Z,6.20
2022-09-06T02:18:10.874Z,6.60
2022-09-06T02:20:45.284Z,7.60
2022-09-06T02:23:15.454Z,7.70
2022-09-06T02:25:51.472Z,6.00
2022-09-06T02:28:19.916Z,7.10
2022-09-06T02:30:53.606Z,7.10
2022-09-06T02:33:27.247Z,6.70
2022-09-06T02:35:56.023Z,6.50
2022-09-06T02:38:26.903Z,5.10
2022-09-06T02:40:57.075Z,5.90
2022-09-06T02:43:25.252Z,5.90
2022-09-06T02:45:53.372Z,5.90
2022-09-06T02:48:22.243Z,5.60
2022-09-06T02:50:50.496Z,5.20
2022-09-06T02:53:19.071Z,5.40
2022-09-06T02:55:49.022Z,6.20
2022-09-06T02:58:17.366Z,5.90
2022-09-06T03:00:45.554Z,6.30
2022-09-06T03:03:14.038Z,7.80
2022-09-06T03:05:43.025Z,6.80
2022-09-06T03:08:11.415Z,8.80
2022-09-06T03:10:39.691Z,5.80
2022-09-06T03:13:08.071Z,6.30
2022-09-06T03:15:36.248Z,4.80
2022-09-06T03:18:04.559Z,5.40
2022-09-06T03:20:36.953Z,4.10
2022-09-06T03:23:05.998Z,5.60
2022-09-06T03:25:34.486Z,6.50
2022-09-06T03:28:03.512Z,6.20
2022-09-06T03:30:32.137Z,6.30
2022-09-06T03:33:02.827Z,6.90
2022-09-06T03:35:32.203Z,9.50
2022-09-06T03:38:00.382Z,4.30
2022-09-06T03:40:28.573Z,4.80
2022-09-06T03:42:57.171Z,8.00
2022-09-06T03:45:25.550Z,5.80
2022-09-06T03:47:54.001Z,7.00
2022-09-06T03:50:22.190Z,4.90
2022-09-06T03:52:50.454Z,5.70
2022-09-06T03:55:18.757Z,5.30
2022-09-06T03:57:46.893Z,9.30
2022-09-06T04:00:15.701Z,7.00
2022-09-06T04:02:43.886Z,6.10
2022-09-06T04:05:13.434Z,6.70
2022-09-06T04:07:43.316Z,6.30
2022-09-06T04:10:11.579Z,8.30
2022-09-06T04:12:39.794Z,8.50
2022-09-06T04:15:08.645Z,6.70
2022-09-06T04:17:37.129Z,7.10
2022-09-06T04:20:06.166Z,7.30
2022-09-06T04:22:34.235Z,5.50
2022-09-06T04:25:03.533Z,5.50
2022-09-06T04:27:32.025Z,4.80
2022-09-06T04:30:00.181Z,4.80
2022-09-06T04:32:28.637Z,6.20
2022-09-06T04:34:56.918Z,6.10
2022-09-06T04:37:25.212Z,5.30
2022-09-06T04:39:54.514Z,8.60
2022-09-06T04:42:23.004Z,5.80
2022-09-06T04:44:51.275Z,10.30
2022-09-06T04:47:19.854Z,6.20
2022-09-06T04:49:50.805Z,6.10
2022-09-06T04:52:19.371Z,6.00
2022-09-06T04:54:47.682Z,5.80
2022-09-06T04:57:16.052Z,5.70
2022-09-06T04:59:44.412Z,5.20
2022-09-06T05:02:13.020Z,8.10
2022-09-06T05:04:41.505Z,6.20
2022-09-06T05:07:09.967Z,5.60
2022-09-06T05:09:38.343Z,5.40
2022-09-06T05:12:07.285Z,6.60
2022-09-06T05:14:36.169Z,7.10
2022-09-06T05:17:04.547Z,8.30
2022-09-06T05:19:33.210Z,6.60
2022-09-06T05:22:01.481Z,8.90
2022-09-06T05:24:29.576Z,6.70
2022-09-06T05:26:57.825Z,5.70
2022-09-06T05:29:30.411Z,7.30
2022-09-06T05:31:59.400Z,6.50
2022-09-06T05:34:27.723Z,5.50
2022-09-06T05:36:55.865Z,7.00
2022-09-06T05:39:24.253Z,6.40
2022-09-06T05:41:52.619Z,5.90
2022-09-06T05:44:20.733Z,13.80
2022-09-06T05:46:49.102Z,7.60
2022-09-06T05:49:17.214Z,5.90
2022-09-06T05:51:51.045Z,8.10
2022-09-06T05:54:19.452Z,7.40
2022-09-06T05:56:47.719Z,7.50
2022-09-06T05:59:15.990Z,4.60
2022-09-06T06:01:52.605Z,7.20
2022-09-06T06:04:22.619Z,6.00
2022-09-06T06:06:51.783Z,3.70
2022-09-06T06:09:22.216Z,4.00
2022-09-06T06:11:50.497Z,3.70
2022-09-06T06:14:18.781Z,6.20
2022-09-06T06:16:47.176Z,8.00
2022-09-06T06:19:15.638Z,6.20
2022-09-06T06:21:44.112Z,9.10
2022-09-06T06:24:12.412Z,3.90
2022-09-06T06:26:40.899Z,4.70
2022-09-06T06:29:09.834Z,8.10
2022-09-06T06:31:39.358Z,4.50
2022-09-06T06:34:08.359Z,4.80
2022-09-06T06:36:37.289Z,3.50
2022-09-06T06:39:08.569Z,4.00
2022-09-06T06:41:36.812Z,4.20
2022-09-06T06:44:10.203Z,8.30
2022-09-06T06:46:39.181Z,6.60
2022-09-06T06:49:07.461Z,7.20
2022-09-06T06:51:39.591Z,4.90
2022-09-06T06:54:07.910Z,4.90
2022-09-06T06:56:45.034Z,6.00
2022-09-06T06:59:14.706Z,7.30
2022-09-06T07:01:43.309Z,10.80
2022-09-06T07:04:12.593Z,5.90
2022-09-06T07:12:45.112Z,7.60
2022-09-06T07:15:13.704Z,5.60
2022-09-06T07:17:41.915Z,4.90
2022-09-06T07:22:45.120Z,8.80
2022-09-06T07:25:20.587Z,5.10
2022-09-06T07:28:08.251Z,5.70
2022-09-06T07:30:37.680Z,5.10
2022-09-06T07:33:06.500Z,5.20
2022-09-06T07:35:35.403Z,6.00
2022-09-06T07:38:04.976Z,4.60
2022-09-06T07:40:33.451Z,3.60
2022-09-06T07:43:01.872Z,5.30
2022-09-06T07:45:30.418Z,7.80
2022-09-06T07:47:59.962Z,7.40
2022-09-06T07:50:48.019Z,5.80
2022-09-06T07:53:26.344Z,8.00
2022-09-06T07:56:00.556Z,4.30
2022-09-06T07:58:30.615Z,4.50
2022-09-06T08:01:34.636Z,4.90
2022-09-06T08:04:05.701Z,6.70
2022-09-06T08:09:25.481Z,4.40
2022-09-06T08:11:54.204Z,4.10
2022-09-06T08:14:22.980Z,3.70
2022-09-06T08:16:51.239Z,5.30
2022-09-06T08:19:19.419Z,4.00
2022-09-06T08:21:47.625Z,4.90
2022-09-06T08:24:16.023Z,5.80
2022-09-06T08:26:44.632Z,5.70
2022-09-06T08:29:13.703Z,6.00
2022-09-06T08:31:44.574Z,3.50
2022-09-06T08:34:14.449Z,6.30
2022-09-06T08:36:43.449Z,4.40
2022-09-06T08:39:11.951Z,4.70
2022-09-06T08:41:53.929Z,4.80
2022-09-06T08:47:22.899Z,4.00
2022-09-06T08:49:57.376Z,4.30
2022-09-06T08:52:54.386Z,5.20
2022-09-06T08:55:40.745Z,4.40
2022-09-06T08:58:46.026Z,4.10
2022-09-06T09:01:19.641Z,4.40
2022-09-06T09:06:17.324Z,4.30
2022-09-06T09:08:46.478Z,4.30
2022-09-06T09:11:20.127Z,3.00
2022-09-06T09:16:24.851Z,4.00
2022-09-06T09:18:56.854Z,7.50
2022-09-06T09:21:31.232Z,4.60
2022-09-06T09:24:06.645Z,4.00
2022-09-06T09:26:42.451Z,4.70
2022-09-06T09:29:14.482Z,4.80
2022-09-06T09:31:53.742Z,4.90
2022-09-06T09:34:35.889Z,3.40
2022-09-06T09:40:13.228Z,5.10
2022-09-06T09:42:42.878Z,5.80
2022-09-06T09:45:38.370Z,3.60
2022-09-06T09:48:29.946Z,4.20
2022-09-06T09:51:27.647Z,3.80
2022-09-06T09:53:58.894Z,5.70
2022-09-06T09:56:37.909Z,3.30
2022-09-06T09:59:31.028Z,3.40
2022-09-06T10:02:01.708Z,4.30
2022-09-06T10:04:45.687Z,9.00
2022-09-06T10:07:19.014Z,4.50
2022-09-06T10:09:59.779Z,3.20
2022-09-06T10:12:31.897Z,4.10
2022-09-06T10:15:04.915Z,4.20
2022-09-06T10:17:49.128Z,4.60
2022-09-06T10:20:17.774Z,3.10
2022-09-06T10:22:56.741Z,3.60
2022-09-06T10:25:46.260Z,3.30
2022-09-06T10:28:20.718Z,4.90
2022-09-06T10:31:21.585Z,3.90
2022-09-06T10:34:16.962Z,4.60
2022-09-06T10:37:05.629Z,3.60
2022-09-06T10:39:50.759Z,4.70
2022-09-06T10:42:48.061Z,4.50
2022-09-06T10:45:35.221Z,5.00
2022-09-06T10:48:14.442Z,4.40
2022-09-06T10:50:55.083Z,3.30
2022-09-06T10:53:35.372Z,5.00
2022-09-06T10:56:08.981Z,5.20
2022-09-06T11:01:41.485Z,4.00
2022-09-06T11:04:20.271Z,4.50
2022-09-06T11:06:53.713Z,4.90
2022-09-06T11:12:08.157Z,5.30
2022-09-06T11:14:38.212Z,3.30
2022-09-06T11:17:19.131Z,3.50
2022-09-06T11:20:02.042Z,4.70
2022-09-06T11:23:08.673Z,6.10
2022-09-06T11:25:54.609Z,4.20
2022-09-06T11:28:42.288Z,5.50
2022-09-06T11:34:10.807Z,3.80
2022-09-06T11:36:52.168Z,4.10
2022-09-06T11:42:44.339Z,21.10
2022-09-06T11:45:48.732Z,12.30
2022-09-06T11:48:35.499Z,7.90
2022-09-06T11:51:11.339Z,7.70
2022-09-06T11:53:48.594Z,7.30
2022-09-06T11:56:29.313Z,5.50
2022-09-06T11:59:20.480Z,7.30
2022-09-06T12:02:02.190Z,5.70
2022-09-06T12:05:01.945Z,3.40
2022-09-06T12:08:11.146Z,3.20
2022-09-06T12:10:39.315Z,4.10
2022-09-06T12:13:52.836Z,5.90
2022-09-06T12:16:21.739Z,4.30
2022-09-06T12:18:49.940Z,4.90
2022-09-06T12:21:39.894Z,5.10
2022-09-06T12:24:29.370Z,8.10
2022-09-06T12:27:15.938Z,4.10
2022-09-06T12:30:00.642Z,4.10
2022-09-06T12:32:34.794Z,4.10
2022-09-06T12:38:07.062Z,5.40
2022-09-06T12:40:41.595Z,3.90
2022-09-06T12:43:13.090Z,4.20
2022-09-06T12:45:53.291Z,4.60
2022-09-06T12:48:30.722Z,4.30
2022-09-06T12:51:07.518Z,6.40
2022-09-06T12:53:35.879Z,5.80
2022-09-06T12:56:06.906Z,6.20
2022-09-06T12:58:36.668Z,4.60
2022-09-06T13:01:17.516Z,3.40
2022-09-06T13:04:03.477Z,5.00
2022-09-06T13:06:42.388Z,3.70
2022-09-06T13:09:14.631Z,3.80
2022-09-06T13:11:46.622Z,6.00
2022-09-06T13:14:23.834Z,6.20
2022-09-06T13:16:56.893Z,7.00
2022-09-06T13:19:40.295Z,4.20
2022-09-06T13:22:11.278Z,4.70
2022-09-06T13:24:46.900Z,3.00
2022-09-06T13:27:31.082Z,3.30
2022-09-06T13:30:01.067Z,6.10
2022-09-06T13:32:29.801Z,5.00
2022-09-06T13:35:00.175Z,5.80
2022-09-06T13:37:31.656Z,4.10
2022-09-06T13:40:00.126Z,3.10
2022-09-06T13:42:38.671Z,4.30
2022-09-06T13:45:27.320Z,4.90
2022-09-06T13:48:07.830Z,3.40
2022-09-06T13:50:44.869Z,4.90
2022-09-06T13:53:19.783Z,4.30
2022-09-06T13:55:48.098Z,3.30
2022-09-06T13:58:16.276Z,4.10
2022-09-06T14:00:46.479Z,3.00
2022-09-06T14:03:25.233Z,4.20
2022-09-06T14:05:53.484Z,3.70
2022-09-06T14:08:21.774Z,3.20
2022-09-06T14:10:52.204Z,5.30
2022-09-06T14:13:21.392Z,4.40
2022-09-06T14:15:50.558Z,3.00
2022-09-06T14:18:19.179Z,3.60
2022-09-06T14:20:56.450Z,3.90
2022-09-06T14:23:28.357Z,4.80
2022-09-06T14:25:58.362Z,3.80
2022-09-06T14:28:27.231Z,3.90
2022-09-06T14:30:55.737Z,3.90
2022-09-06T14:33:24.381Z,4.40
2022-09-06T14:35:52.522Z,3.70
2022-09-06T14:38:20.965Z,4.30
2022-09-06T14:40:49.349Z,4.50
2022-09-06T14:43:17.828Z,4.00
2022-09-06T14:45:46.075Z,3.10
2022-09-06T14:48:15.020Z,3.90
2022-09-06T14:50:43.242Z,4.20
2022-09-06T14:53:30.128Z,3.70
2022-09-06T14:56:04.009Z,5.00
2022-09-06T14:58:34.224Z,4.50
2022-09-06T15:01:15.789Z,6.00
2022-09-06T15:03:48.681Z,4.30
2022-09-06T15:06:17.467Z,4.10
2022-09-06T15:08:46.282Z,3.40
2022-09-06T15:11:16.282Z,3.80
2022-09-06T15:13:44.579Z,4.40
2022-09-06T15:16:12.874Z,4.80
2022-09-06T15:18:41.187Z,6.80
2022-09-06T15:21:11.707Z,5.60
2022-09-06T15:23:40.927Z,4.90
2022-09-06T15:26:13.712Z,4.80
2022-09-06T15:28:46.052Z,5.00
2022-09-06T15:31:17.551Z,7.00
2022-09-06T15:33:46.386Z,8.40
2022-09-06T15:36:16.493Z,8.00
2022-09-06T15:38:48.160Z,6.30
2022-09-06T15:41:22.933Z,5.50
2022-09-06T15:43:55.123Z,6.90
2022-09-06T15:46:55.586Z,7.20
2022-09-06T15:49:28.055Z,6.70
2022-09-06T15:51:58.800Z,8.10
2022-09-06T15:54:47.080Z,8.70
2022-09-06T15:57:17.100Z,7.80
2022-09-06T15:59:46.269Z,5.30
2022-09-06T16:02:15.343Z,5.80
2022-09-06T16:04:45.342Z,5.30
2022-09-06T16:07:14.813Z,7.20
2022-09-06T16:09:43.809Z,5.90
2022-09-06T16:12:12.033Z,6.30
2022-09-06T16:14:40.314Z,4.40
2022-09-06T16:17:09.144Z,6.80
2022-09-06T16:19:39.824Z,6.20
2022-09-06T16:22:08.956Z,6.20
2022-09-06T16:24:38.097Z,6.90
2022-09-06T16:27:07.279Z,6.70
2022-09-06T16:29:35.454Z,8.80
2022-09-06T16:32:03.624Z,12.90
2022-09-06T16:34:31.858Z,12.20
2022-09-06T16:37:00.327Z,19.20
2022-09-06T16:39:28.625Z,20.60
2022-09-06T16:41:56.924Z,15.00
2022-09-06T16:44:25.233Z,17.10
2022-09-06T16:46:56.243Z,18.60
2022-09-06T16:49:24.726Z,14.50
2022-09-06T16:51:53.228Z,14.00
2022-09-06T16:54:21.794Z,17.90
2022-09-06T16:56:50.179Z,16.40
2022-09-06T16:59:18.803Z,17.40
2022-09-06T17:01:47.514Z,19.40
2022-09-06T17:04:16.258Z,22.30
2022-09-06T17:06:45.977Z,28.20
2022-09-06T17:09:17.813Z,17.70
2022-09-06T17:11:49.937Z,21.80
2022-09-06T17:14:18.986Z,29.50
2022-09-06T17:17:06.003Z,34.00
2022-09-06T17:19:40.812Z,36.10
2022-09-06T17:22:10.486Z,33.30
2022-09-06T17:24:39.128Z,29.40
2022-09-06T17:27:08.721Z,37.60
2022-09-06T17:29:37.457Z,37.90
2022-09-06T17:32:10.442Z,47.70
2022-09-06T17:34:39.976Z,28.20
2022-09-06T17:37:09.039Z,25.90
2022-09-06T17:39:37.904Z,29.30
2022-09-06T17:42:07.008Z,26.20
2022-09-06T17:44:35.851Z,32.00
2022-09-06T17:47:13.446Z,19.70
2022-09-06T17:49:43.561Z,23.70
2022-09-06T17:52:12.124Z,17.60
2022-09-06T17:54:40.273Z,21.30
2022-09-06T17:57:08.490Z,22.50
2022-09-06T17:59:36.932Z,25.30
2022-09-06T18:02:05.620Z,26.90
2022-09-06T18:04:33.887Z,36.50
2022-09-06T18:07:02.485Z,35.10
2022-09-06T18:09:30.750Z,34.60
2022-09-06T18:11:59.453Z,30.10
2022-09-06T18:14:28.722Z,21.40
2022-09-06T18:16:57.287Z,17.80
2022-09-06T18:19:27.659Z,15.90
2022-09-06T18:21:57.511Z,11.90
2022-09-06T18:24:25.813Z,9.90
2022-09-06T18:26:54.137Z,12.10
2022-09-06T18:29:22.617Z,13.30
2022-09-06T18:31:53.880Z,12.50
2022-09-06T18:34:22.352Z,11.10
2022-09-06T18:36:50.955Z,16.90
2022-09-06T18:39:20.620Z,17.40
2022-09-06T18:42:01.174Z,24.10
2022-09-06T18:44:32.529Z,17.90
2022-09-06T18:47:03.356Z,25.00
2022-09-06T18:49:32.629Z,23.40
2022-09-06T18:52:02.484Z,14.90
2022-09-06T18:54:31.930Z,13.50
2022-09-06T18:57:00.304Z,11.60
2022-09-06T18:59:28.545Z,10.10
2022-09-06T19:01:57.672Z,10.60
2022-09-06T19:04:26.163Z,8.70
2022-09-06T19:06:54.445Z,7.90
2022-09-06T19:09:23.434Z,17.80
2022-09-06T19:11:53.381Z,17.60
2022-09-06T19:14:22.103Z,19.20
2022-09-06T19:16:52.057Z,18.10
2022-09-06T19:19:21.926Z,17.80
2022-09-06T19:21:50.316Z,12.60
2022-09-06T19:24:22.920Z,14.30
2022-09-06T19:26:52.937Z,8.40
2022-09-06T19:29:21.339Z,9.20
2022-09-06T19:31:49.718Z,7.80
2022-09-06T19:34:18.504Z,7.50
2022-09-06T19:36:46.884Z,13.90
2022-09-06T19:39:16.944Z,13.10
2022-09-06T19:41:47.449Z,10.00
2022-09-06T19:44:17.245Z,11.90
2022-09-06T19:46:47.463Z,7.70
2022-09-06T19:49:17.512Z,9.10
2022-09-06T19:51:48.965Z,7.20
2022-09-06T19:54:18.460Z,8.20
2022-09-06T19:56:47.241Z,8.00
2022-09-06T19:59:17.870Z,10.50
2022-09-06T20:01:47.876Z,9.10
2022-09-06T20:04:16.267Z,8.00
2022-09-06T20:06:44.706Z,11.40
2022-09-06T20:09:15.699Z,10.00
2022-09-06T20:11:44.083Z,11.50
2022-09-06T20:14:13.345Z,8.60
2022-09-06T20:16:42.727Z,7.40
2022-09-06T20:19:12.830Z,9.20
2022-09-06T20:21:40.982Z,8.80
2022-09-06T20:24:09.363Z,7.10
2022-09-06T20:26:38.074Z,8.20
2022-09-06T20:29:07.200Z,6.00
2022-09-06T20:31:37.103Z,7.40
2022-09-06T20:34:06.562Z,5.90
2022-09-06T20:36:35.369Z,7.50
2022-09-06T20:39:04.356Z,5.30
2022-09-06T20:41:34.048Z,8.10
2022-09-06T20:44:03.062Z,8.10
2022-09-06T20:46:34.137Z,5.60
2022-09-06T20:49:04.935Z,6.50
2022-09-06T20:51:35.169Z,7.30
2022-09-06T20:54:05.482Z,5.40
2022-09-06T20:56:38.796Z,6.30
2022-09-06T20:59:09.432Z,7.00
2022-09-06T21:01:41.872Z,5.80
2022-09-06T21:04:11.845Z,8.10
2022-09-06T21:06:41.328Z,6.00
2022-09-06T21:09:11.805Z,5.80
2022-09-06T21:11:41.361Z,6.30
2022-09-06T21:14:10.396Z,7.20
2022-09-06T21:16:40.920Z,5.30
2022-09-06T21:19:11.101Z,5.40
2022-09-06T21:21:40.150Z,8.90
2022-09-06T21:24:09.762Z,7.70
2022-09-06T21:26:38.611Z,6.00
2022-09-06T21:29:07.020Z,5.90
2022-09-06T21:31:37.373Z,5.60
2022-09-06T21:34:12.524Z,5.90
2022-09-06T21:36:44.503Z,5.40
2022-09-06T21:39:13.332Z,7.00
2022-09-06T21:41:43.563Z,6.40
2022-09-06T21:44:12.899Z,4.60
2022-09-06T21:46:41.432Z,5.50
2022-09-06T21:49:12.899Z,6.30
2022-09-06T21:51:42.186Z,5.90
2022-09-06T21:54:10.559Z,6.50
2022-09-06T21:56:39.904Z,7.40
2022-09-06T21:59:08.758Z,7.70
2022-09-06T22:01:38.256Z,6.90
2022-09-06T22:04:07.074Z,7.00
2022-09-06T22:06:36.416Z,6.50
2022-09-06T22:09:11.276Z,6.90
2022-09-06T22:11:42.209Z,8.60
2022-09-06T22:14:13.290Z,7.80
2022-09-06T22:16:42.304Z,6.50
2022-09-06T22:19:11.001Z,5.80
2022-09-06T22:21:39.667Z,7.50
2022-09-06T22:24:11.459Z,6.20
2022-09-06T22:26:40.764Z,6.10
2022-09-06T22:29:11.072Z,6.60
2022-09-06T22:31:40.322Z,5.30
2022-09-06T22:34:10.505Z,6.30
2022-09-06T22:36:39.269Z,5.70
2022-09-06T22:39:07.727Z,5.50
2022-09-06T22:41:35.860Z,6.70
2022-09-06T22:44:05.393Z,6.20
2022-09-06T22:46:34.135Z,4.90
2022-09-06T22:49:04.066Z,6.30
2022-09-06T22:51:32.626Z,5.70
2022-09-06T22:54:00.799Z,7.30
2022-09-06T22:56:29.030Z,7.90
2022-09-06T22:58:58.866Z,6.40
2022-09-06T23:01:27.145Z,7.30
2022-09-06T23:03:55.428Z,5.60
2022-09-06T23:06:23.454Z,6.20
2022-09-06T23:08:51.717Z,4.90
2022-09-06T23:11:20.038Z,7.10
2022-09-06T23:13:48.395Z,5.20
2022-09-06T23:16:19.043Z,6.00
2022-09-06T23:18:48.462Z,6.30
2022-09-06T23:21:19.547Z,5.90
2022-09-06T23:23:49.667Z,6.90
2022-09-06T23:26:23.395Z,4.90
2022-09-06T23:31:20.007Z,9.30
2022-09-06T23:33:52.272Z,5.30
2022-09-06T23:36:21.114Z,6.00
2022-09-06T23:38:49.500Z,5.80
2022-09-06T23:41:18.232Z,5.20
2022-09-06T23:43:46.237Z,5.10
2022-09-06T23:46:17.300Z,5.40
2022-09-06T23:48:45.750Z,4.50
2022-09-06T23:51:14.133Z,4.50
2022-09-06T23:53:42.410Z,8.40
2022-09-06T23:56:11.205Z,6.30
2022-09-06T23:58:40.224Z,4.90
